Bridgewater, New York
Current Conditions -  °F | °C
As of 4:53 AM on Friday 19 Dec 2014 (Local Time) from KRME Reporting Station
Overcast Overcast  
Wind Chill: -10°   Ceiling: 3200
Heat Index: -3°   Visibility: 10mi
Dew Point: -5°   Wind: 14mph
Humidity: 88%   Direction: 290°WNW
Pressure: 30.03"   Gusts: NA
Location:  42.88°N, 75.25°W
Report Text: KRME 190953Z AUTO 29012KT 10SM BKN032 OVC043 M03/M05 A3003 RMK AO2 SLP175 T10331050
Loading
Personal Weather Stations






























Interactive Weather Map New forecast layout! Learn more

10-Day Weather Forecast

Advertisements
Track Severe Weather on mobile